sensor_id;sensor_type;location;lat;lon;timestamp;P1;durP1;ratioP1;P2;durP2;ratioP2
11837;SDS011;5978;51.020;6.764;2023-04-24T00:01:12;1.70;;;1.60;;
11837;SDS011;5978;51.020;6.764;2023-04-24T00:03:38;1.30;;;1.20;;
11837;SDS011;5978;51.020;6.764;2023-04-24T00:06:04;1.40;;;1.17;;
11837;SDS011;5978;51.020;6.764;2023-04-24T00:08:33;1.80;;;1.43;;
11837;SDS011;5978;51.020;6.764;2023-04-24T00:10:59;1.63;;;1.30;;
11837;SDS011;5978;51.020;6.764;2023-04-24T00:13:25;8.23;;;1.73;;
11837;SDS011;5978;51.020;6.764;2023-04-24T00:15:53;1.60;;;1.40;;
11837;SDS011;5978;51.020;6.764;2023-04-24T00:18:19;1.73;;;1.40;;
11837;SDS011;5978;51.020;6.764;2023-04-24T00:20:44;2.20;;;1.60;;
11837;SDS011;5978;51.020;6.764;2023-04-24T00:23:11;2.77;;;2.10;;
11837;SDS011;5978;51.020;6.764;2023-04-24T00:25:37;2.80;;;1.50;;
11837;SDS011;5978;51.020;6.764;2023-04-24T00:28:03;1.67;;;1.50;;
11837;SDS011;5978;51.020;6.764;2023-04-24T00:30:29;1.93;;;1.47;;
11837;SDS011;5978;51.020;6.764;2023-04-24T00:32:54;4.10;;;1.40;;
11837;SDS011;5978;51.020;6.764;2023-04-24T00:35:20;1.33;;;1.23;;
11837;SDS011;5978;51.020;6.764;2023-04-24T00:37:45;2.90;;;1.87;;
11837;SDS011;5978;51.020;6.764;2023-04-24T00:40:11;1.93;;;1.83;;
11837;SDS011;5978;51.020;6.764;2023-04-24T00:42:37;2.43;;;1.50;;
11837;SDS011;5978;51.020;6.764;2023-04-24T00:45:05;3.37;;;2.03;;
11837;SDS011;5978;51.020;6.764;2023-04-24T00:47:31;3.20;;;2.20;;
11837;SDS011;5978;51.020;6.764;2023-04-24T00:49:58;2.03;;;1.73;;
11837;SDS011;5978;51.020;6.764;2023-04-24T00:52:25;7.20;;;1.77;;
11837;SDS011;5978;51.020;6.764;2023-04-24T00:54:51;3.03;;;1.83;;
11837;SDS011;5978;51.020;6.764;2023-04-24T00:57:17;4.40;;;1.90;;
11837;SDS011;5978;51.020;6.764;2023-04-24T00:59:42;1.77;;;1.57;;
11837;SDS011;5978;51.020;6.764;2023-04-24T01:02:08;2.67;;;1.70;;
11837;SDS011;5978;51.020;6.764;2023-04-24T01:04:35;2.23;;;1.93;;
11837;SDS011;5978;51.020;6.764;2023-04-24T01:07:02;3.53;;;1.80;;
11837;SDS011;5978;51.020;6.764;2023-04-24T01:09:28;3.87;;;2.40;;
11837;SDS011;5978;51.020;6.764;2023-04-24T01:11:54;2.27;;;2.07;;
11837;SDS011;5978;51.020;6.764;2023-04-24T01:14:20;12.10;;;3.33;;
11837;SDS011;5978;51.020;6.764;2023-04-24T01:16:45;2.63;;;2.43;;
11837;SDS011;5978;51.020;6.764;2023-04-24T01:19:11;5.70;;;2.80;;
11837;SDS011;5978;51.020;6.764;2023-04-24T01:21:39;5.80;;;3.70;;
11837;SDS011;5978;51.020;6.764;2023-04-24T01:24:08;4.80;;;4.40;;
11837;SDS011;5978;51.020;6.764;2023-04-24T01:26:34;6.67;;;4.03;;
11837;SDS011;5978;51.020;6.764;2023-04-24T01:28:59;6.40;;;4.70;;
11837;SDS011;5978;51.020;6.764;2023-04-24T01:31:25;6.80;;;5.10;;
11837;SDS011;5978;51.020;6.764;2023-04-24T01:33:51;8.80;;;5.00;;
11837;SDS011;5978;51.020;6.764;2023-04-24T01:36:17;4.73;;;4.23;;
11837;SDS011;5978;51.020;6.764;2023-04-24T01:38:44;8.40;;;5.67;;
11837;SDS011;5978;51.020;6.764;2023-04-24T01:41:10;6.10;;;5.43;;
11837;SDS011;5978;51.020;6.764;2023-04-24T01:43:35;7.40;;;6.50;;
11837;SDS011;5978;51.020;6.764;2023-04-24T01:46:01;12.50;;;6.60;;
11837;SDS011;5978;51.020;6.764;2023-04-24T01:48:27;8.25;;;6.22;;
11837;SDS011;5978;51.020;6.764;2023-04-24T01:50:53;6.20;;;4.03;;
11837;SDS011;5978;51.020;6.764;2023-04-24T01:53:19;7.17;;;5.00;;
11837;SDS011;5978;51.020;6.764;2023-04-24T01:55:45;7.50;;;5.57;;
11837;SDS011;5978;51.020;6.764;2023-04-24T01:58:10;8.30;;;5.23;;
11837;SDS011;5978;51.020;6.764;2023-04-24T02:00:36;7.63;;;6.13;;
11837;SDS011;5978;51.020;6.764;2023-04-24T02:03:01;10.83;;;6.90;;
11837;SDS011;5978;51.020;6.764;2023-04-24T02:05:28;9.03;;;6.20;;
11837;SDS011;5978;51.020;6.764;2023-04-24T02:07:53;8.70;;;7.20;;
11837;SDS011;5978;51.020;6.764;2023-04-24T02:10:19;8.87;;;7.60;;
11837;SDS011;5978;51.020;6.764;2023-04-24T02:12:45;10.93;;;7.70;;
11837;SDS011;5978;51.020;6.764;2023-04-24T02:15:10;10.97;;;7.03;;
11837;SDS011;5978;51.020;6.764;2023-04-24T02:17:37;12.48;;;8.70;;
11837;SDS011;5978;51.020;6.764;2023-04-24T02:20:02;9.60;;;7.70;;
11837;SDS011;5978;51.020;6.764;2023-04-24T02:22:29;9.55;;;7.40;;
11837;SDS011;5978;51.020;6.764;2023-04-24T02:24:55;11.17;;;6.80;;
11837;SDS011;5978;51.020;6.764;2023-04-24T02:27:21;11.33;;;7.80;;
11837;SDS011;5978;51.020;6.764;2023-04-24T02:29:46;9.10;;;6.93;;
11837;SDS011;5978;51.020;6.764;2023-04-24T02:32:12;11.70;;;7.60;;
11837;SDS011;5978;51.020;6.764;2023-04-24T02:34:40;10.27;;;7.20;;
11837;SDS011;5978;51.020;6.764;2023-04-24T02:37:05;14.23;;;6.90;;
11837;SDS011;5978;51.020;6.764;2023-04-24T02:39:31;11.57;;;8.10;;
11837;SDS011;5978;51.020;6.764;2023-04-24T02:41:57;12.10;;;7.80;;
11837;SDS011;5978;51.020;6.764;2023-04-24T02:44:23;14.63;;;7.83;;
11837;SDS011;5978;51.020;6.764;2023-04-24T02:46:48;12.77;;;8.07;;
11837;SDS011;5978;51.020;6.764;2023-04-24T02:49:14;11.47;;;8.30;;
11837;SDS011;5978;51.020;6.764;2023-04-24T02:51:40;13.07;;;8.38;;
11837;SDS011;5978;51.020;6.764;2023-04-24T02:54:06;11.00;;;7.07;;
11837;SDS011;5978;51.020;6.764;2023-04-24T02:56:33;11.27;;;7.73;;
11837;SDS011;5978;51.020;6.764;2023-04-24T02:58:59;12.37;;;8.20;;
11837;SDS011;5978;51.020;6.764;2023-04-24T03:01:24;12.77;;;8.20;;
11837;SDS011;5978;51.020;6.764;2023-04-24T03:03:50;11.30;;;7.63;;
11837;SDS011;5978;51.020;6.764;2023-04-24T03:06:16;11.70;;;8.60;;
11837;SDS011;5978;51.020;6.764;2023-04-24T03:08:41;10.00;;;8.70;;
11837;SDS011;5978;51.020;6.764;2023-04-24T03:11:07;10.53;;;7.97;;
11837;SDS011;5978;51.020;6.764;2023-04-24T03:13:32;14.00;;;9.00;;
11837;SDS011;5978;51.020;6.764;2023-04-24T03:15:58;11.20;;;7.90;;
11837;SDS011;5978;51.020;6.764;2023-04-24T03:18:24;14.90;;;8.13;;
11837;SDS011;5978;51.020;6.764;2023-04-24T03:20:50;10.18;;;7.90;;
11837;SDS011;5978;51.020;6.764;2023-04-24T03:23:16;14.33;;;9.67;;
11837;SDS011;5978;51.020;6.764;2023-04-24T03:25:41;12.40;;;8.23;;
11837;SDS011;5978;51.020;6.764;2023-04-24T03:28:07;11.30;;;9.10;;
11837;SDS011;5978;51.020;6.764;2023-04-24T03:30:34;14.10;;;8.70;;
11837;SDS011;5978;51.020;6.764;2023-04-24T03:33:00;23.90;;;11.33;;
11837;SDS011;5978;51.020;6.764;2023-04-24T03:35:25;11.00;;;8.43;;
11837;SDS011;5978;51.020;6.764;2023-04-24T03:37:51;15.57;;;9.40;;
11837;SDS011;5978;51.020;6.764;2023-04-24T03:40:17;10.73;;;8.73;;
11837;SDS011;5978;51.020;6.764;2023-04-24T03:42:42;10.00;;;8.00;;
11837;SDS011;5978;51.020;6.764;2023-04-24T03:45:08;11.13;;;8.70;;
11837;SDS011;5978;51.020;6.764;2023-04-24T03:47:34;15.90;;;9.57;;
11837;SDS011;5978;51.020;6.764;2023-04-24T03:50:00;11.37;;;7.90;;
11837;SDS011;5978;51.020;6.764;2023-04-24T03:52:26;12.33;;;8.53;;
11837;SDS011;5978;51.020;6.764;2023-04-24T03:54:51;10.93;;;8.80;;
11837;SDS011;5978;51.020;6.764;2023-04-24T03:57:17;9.80;;;7.43;;
11837;SDS011;5978;51.020;6.764;2023-04-24T03:59:42;13.60;;;8.83;;
11837;SDS011;5978;51.020;6.764;2023-04-24T04:02:08;13.17;;;8.40;;
11837;SDS011;5978;51.020;6.764;2023-04-24T04:04:33;11.70;;;7.90;;
11837;SDS011;5978;51.020;6.764;2023-04-24T04:06:59;9.77;;;7.70;;
11837;SDS011;5978;51.020;6.764;2023-04-24T04:09:27;12.82;;;9.05;;
11837;SDS011;5978;51.020;6.764;2023-04-24T04:11:53;11.37;;;7.50;;
11837;SDS011;5978;51.020;6.764;2023-04-24T04:14:19;15.20;;;8.90;;
11837;SDS011;5978;51.020;6.764;2023-04-24T04:16:44;14.27;;;9.73;;
11837;SDS011;5978;51.020;6.764;2023-04-24T04:19:10;11.77;;;7.33;;
11837;SDS011;5978;51.020;6.764;2023-04-24T04:21:36;12.37;;;8.40;;
11837;SDS011;5978;51.020;6.764;2023-04-24T04:24:01;11.53;;;8.23;;
11837;SDS011;5978;51.020;6.764;2023-04-24T04:26:27;16.90;;;9.53;;
11837;SDS011;5978;51.020;6.764;2023-04-24T04:28:53;12.97;;;9.30;;
11837;SDS011;5978;51.020;6.764;2023-04-24T04:31:21;8.97;;;7.40;;
11837;SDS011;5978;51.020;6.764;2023-04-24T04:33:48;12.55;;;7.70;;
11837;SDS011;5978;51.020;6.764;2023-04-24T04:36:14;17.60;;;8.77;;
11837;SDS011;5978;51.020;6.764;2023-04-24T04:38:39;8.97;;;7.97;;
11837;SDS011;5978;51.020;6.764;2023-04-24T04:41:05;11.20;;;7.10;;
11837;SDS011;5978;51.020;6.764;2023-04-24T04:43:32;11.27;;;7.05;;
11837;SDS011;5978;51.020;6.764;2023-04-24T04:45:59;9.68;;;6.80;;
11837;SDS011;5978;51.020;6.764;2023-04-24T04:48:25;10.77;;;7.28;;
11837;SDS011;5978;51.020;6.764;2023-04-24T04:50:52;7.10;;;6.40;;
11837;SDS011;5978;51.020;6.764;2023-04-24T04:53:17;11.00;;;6.63;;
11837;SDS011;5978;51.020;6.764;2023-04-24T04:55:43;12.00;;;7.70;;
11837;SDS011;5978;51.020;6.764;2023-04-24T04:58:09;8.70;;;6.90;;
11837;SDS011;5978;51.020;6.764;2023-04-24T05:00:35;7.20;;;6.40;;
11837;SDS011;5978;51.020;6.764;2023-04-24T05:03:02;13.27;;;7.00;;
11837;SDS011;5978;51.020;6.764;2023-04-24T05:05:28;10.73;;;6.57;;
11837;SDS011;5978;51.020;6.764;2023-04-24T05:07:54;8.07;;;6.30;;
11837;SDS011;5978;51.020;6.764;2023-04-24T05:10:20;8.10;;;6.73;;
11837;SDS011;5978;51.020;6.764;2023-04-24T05:12:45;14.43;;;7.30;;
11837;SDS011;5978;51.020;6.764;2023-04-24T05:15:11;9.23;;;6.97;;
11837;SDS011;5978;51.020;6.764;2023-04-24T05:17:36;10.80;;;7.63;;
11837;SDS011;5978;51.020;6.764;2023-04-24T05:20:04;9.02;;;7.70;;
11837;SDS011;5978;51.020;6.764;2023-04-24T05:22:31;13.07;;;7.50;;
11837;SDS011;5978;51.020;6.764;2023-04-24T05:24:57;11.27;;;7.80;;
11837;SDS011;5978;51.020;6.764;2023-04-24T05:27:22;12.03;;;9.27;;
11837;SDS011;5978;51.020;6.764;2023-04-24T05:29:48;11.10;;;8.37;;
11837;SDS011;5978;51.020;6.764;2023-04-24T05:32:13;14.53;;;7.37;;
11837;SDS011;5978;51.020;6.764;2023-04-24T05:34:39;14.73;;;8.67;;
11837;SDS011;5978;51.020;6.764;2023-04-24T05:37:05;10.20;;;8.07;;
11837;SDS011;5978;51.020;6.764;2023-04-24T05:39:33;8.85;;;7.35;;
11837;SDS011;5978;51.020;6.764;2023-04-24T05:42:00;13.80;;;8.35;;
11837;SDS011;5978;51.020;6.764;2023-04-24T05:44:26;11.43;;;8.48;;
11837;SDS011;5978;51.020;6.764;2023-04-24T05:46:52;10.10;;;7.70;;
11837;SDS011;5978;51.020;6.764;2023-04-24T05:49:20;10.40;;;7.20;;
11837;SDS011;5978;51.020;6.764;2023-04-24T05:51:45;10.73;;;7.60;;
11837;SDS011;5978;51.020;6.764;2023-04-24T05:54:11;10.13;;;7.93;;
11837;SDS011;5978;51.020;6.764;2023-04-24T05:56:37;10.43;;;7.97;;
11837;SDS011;5978;51.020;6.764;2023-04-24T05:59:03;10.55;;;7.90;;
11837;SDS011;5978;51.020;6.764;2023-04-24T06:01:29;9.33;;;6.70;;
11837;SDS011;5978;51.020;6.764;2023-04-24T06:03:54;9.67;;;6.57;;
11837;SDS011;5978;51.020;6.764;2023-04-24T06:06:20;8.47;;;6.07;;
11837;SDS011;5978;51.020;6.764;2023-04-24T06:08:46;7.30;;;6.07;;
11837;SDS011;5978;51.020;6.764;2023-04-24T06:11:12;8.77;;;6.45;;
11837;SDS011;5978;51.020;6.764;2023-04-24T06:13:37;7.10;;;5.23;;
11837;SDS011;5978;51.020;6.764;2023-04-24T06:16:04;11.13;;;6.03;;
11837;SDS011;5978;51.020;6.764;2023-04-24T06:18:30;8.23;;;6.05;;
11837;SDS011;5978;51.020;6.764;2023-04-24T06:20:55;6.03;;;4.77;;
11837;SDS011;5978;51.020;6.764;2023-04-24T06:23:21;10.87;;;5.10;;
11837;SDS011;5978;51.020;6.764;2023-04-24T06:25:46;5.80;;;4.70;;
11837;SDS011;5978;51.020;6.764;2023-04-24T06:28:12;4.97;;;4.40;;
11837;SDS011;5978;51.020;6.764;2023-04-24T06:30:38;6.53;;;4.90;;
11837;SDS011;5978;51.020;6.764;2023-04-24T06:33:03;5.77;;;5.27;;
11837;SDS011;5978;51.020;6.764;2023-04-24T06:35:29;9.93;;;5.30;;
11837;SDS011;5978;51.020;6.764;2023-04-24T06:37:54;6.73;;;4.53;;
11837;SDS011;5978;51.020;6.764;2023-04-24T06:40:21;7.05;;;4.40;;
11837;SDS011;5978;51.020;6.764;2023-04-24T06:42:47;4.63;;;3.92;;
11837;SDS011;5978;51.020;6.764;2023-04-24T06:45:12;4.60;;;3.70;;
11837;SDS011;5978;51.020;6.764;2023-04-24T06:47:38;6.30;;;4.80;;
11837;SDS011;5978;51.020;6.764;2023-04-24T06:50:04;6.60;;;4.60;;
11837;SDS011;5978;51.020;6.764;2023-04-24T06:52:30;6.93;;;4.55;;
11837;SDS011;5978;51.020;6.764;2023-04-24T06:55:05;5.03;;;3.97;;
11837;SDS011;5978;51.020;6.764;2023-04-24T06:57:31;8.85;;;4.85;;
11837;SDS011;5978;51.020;6.764;2023-04-24T06:59:56;5.00;;;3.80;;
11837;SDS011;5978;51.020;6.764;2023-04-24T07:02:22;5.30;;;3.60;;
11837;SDS011;5978;51.020;6.764;2023-04-24T07:04:48;4.40;;;3.00;;
11837;SDS011;5978;51.020;6.764;2023-04-24T07:07:13;3.60;;;2.70;;
11837;SDS011;5978;51.020;6.764;2023-04-24T07:09:39;3.43;;;2.90;;
11837;SDS011;5978;51.020;6.764;2023-04-24T07:12:11;5.50;;;4.57;;
11837;SDS011;5978;51.020;6.764;2023-04-24T07:14:37;6.95;;;4.30;;
11837;SDS011;5978;51.020;6.764;2023-04-24T07:17:03;7.32;;;5.00;;
11837;SDS011;5978;51.020;6.764;2023-04-24T07:19:30;5.63;;;4.60;;
11837;SDS011;5978;51.020;6.764;2023-04-24T07:21:56;8.00;;;5.40;;
11837;SDS011;5978;51.020;6.764;2023-04-24T07:24:23;5.30;;;4.00;;
11837;SDS011;5978;51.020;6.764;2023-04-24T07:26:50;7.63;;;4.40;;
11837;SDS011;5978;51.020;6.764;2023-04-24T07:29:16;7.20;;;5.18;;
11837;SDS011;5978;51.020;6.764;2023-04-24T07:31:43;8.70;;;5.17;;
11837;SDS011;5978;51.020;6.764;2023-04-24T07:34:08;5.60;;;4.33;;
11837;SDS011;5978;51.020;6.764;2023-04-24T07:36:34;5.70;;;4.70;;
11837;SDS011;5978;51.020;6.764;2023-04-24T07:39:00;5.20;;;4.00;;
11837;SDS011;5978;51.020;6.764;2023-04-24T07:41:26;8.03;;;5.40;;
11837;SDS011;5978;51.020;6.764;2023-04-24T07:43:53;5.95;;;4.75;;
11837;SDS011;5978;51.020;6.764;2023-04-24T07:46:18;6.50;;;4.90;;
11837;SDS011;5978;51.020;6.764;2023-04-24T07:48:45;7.85;;;4.40;;
11837;SDS011;5978;51.020;6.764;2023-04-24T07:51:13;3.63;;;3.17;;
11837;SDS011;5978;51.020;6.764;2023-04-24T07:53:40;4.10;;;3.70;;
11837;SDS011;5978;51.020;6.764;2023-04-24T07:56:06;4.40;;;2.95;;
11837;SDS011;5978;51.020;6.764;2023-04-24T07:58:31;3.90;;;3.50;;
11837;SDS011;5978;51.020;6.764;2023-04-24T08:00:57;10.30;;;4.10;;
11837;SDS011;5978;51.020;6.764;2023-04-24T08:03:23;6.40;;;3.67;;
11837;SDS011;5978;51.020;6.764;2023-04-24T08:05:49;4.55;;;3.83;;
11837;SDS011;5978;51.020;6.764;2023-04-24T08:08:16;4.32;;;3.33;;
11837;SDS011;5978;51.020;6.764;2023-04-24T08:10:42;4.77;;;3.20;;
11837;SDS011;5978;51.020;6.764;2023-04-24T08:13:07;3.87;;;2.93;;
11837;SDS011;5978;51.020;6.764;2023-04-24T08:15:33;5.53;;;3.53;;
11837;SDS011;5978;51.020;6.764;2023-04-24T08:17:59;5.30;;;3.80;;
11837;SDS011;5978;51.020;6.764;2023-04-24T08:20:24;4.67;;;2.87;;
11837;SDS011;5978;51.020;6.764;2023-04-24T08:22:50;5.37;;;3.70;;
11837;SDS011;5978;51.020;6.764;2023-04-24T08:25:16;4.50;;;3.20;;
11837;SDS011;5978;51.020;6.764;2023-04-24T08:27:42;6.13;;;4.32;;
11837;SDS011;5978;51.020;6.764;2023-04-24T08:30:08;4.83;;;3.93;;
11837;SDS011;5978;51.020;6.764;2023-04-24T08:32:35;5.72;;;3.85;;
11837;SDS011;5978;51.020;6.764;2023-04-24T08:35:01;5.13;;;3.40;;
11837;SDS011;5978;51.020;6.764;2023-04-24T08:37:27;7.03;;;4.27;;
11837;SDS011;5978;51.020;6.764;2023-04-24T08:39:53;7.20;;;4.53;;
11837;SDS011;5978;51.020;6.764;2023-04-24T08:42:19;13.53;;;5.20;;
11837;SDS011;5978;51.020;6.764;2023-04-24T08:44:46;5.95;;;4.22;;
11837;SDS011;5978;51.020;6.764;2023-04-24T08:47:14;4.45;;;4.03;;
11837;SDS011;5978;51.020;6.764;2023-04-24T08:49:41;6.13;;;4.68;;
11837;SDS011;5978;51.020;6.764;2023-04-24T08:52:07;5.55;;;4.60;;
11837;SDS011;5978;51.020;6.764;2023-04-24T08:54:34;7.67;;;4.73;;
11837;SDS011;5978;51.020;6.764;2023-04-24T08:57:01;11.20;;;5.72;;
11837;SDS011;5978;51.020;6.764;2023-04-24T08:59:29;8.57;;;5.68;;
11837;SDS011;5978;51.020;6.764;2023-04-24T09:01:58;7.97;;;5.78;;
11837;SDS011;5978;51.020;6.764;2023-04-24T09:04:25;9.82;;;5.85;;
11837;SDS011;5978;51.020;6.764;2023-04-24T09:06:56;6.72;;;5.60;;
11837;SDS011;5978;51.020;6.764;2023-04-24T09:09:23;17.60;;;7.05;;
11837;SDS011;5978;51.020;6.764;2023-04-24T09:11:50;7.88;;;6.20;;
11837;SDS011;5978;51.020;6.764;2023-04-24T09:14:19;8.13;;;6.35;;
11837;SDS011;5978;51.020;6.764;2023-04-24T09:16:46;9.50;;;6.35;;
11837;SDS011;5978;51.020;6.764;2023-04-24T09:19:12;10.07;;;5.68;;
11837;SDS011;5978;51.020;6.764;2023-04-24T09:21:41;17.55;;;6.80;;
11837;SDS011;5978;51.020;6.764;2023-04-24T09:24:15;12.15;;;7.72;;
11837;SDS011;5978;51.020;6.764;2023-04-24T09:26:43;12.00;;;7.40;;
11837;SDS011;5978;51.020;6.764;2023-04-24T09:29:13;13.25;;;7.85;;
11837;SDS011;5978;51.020;6.764;2023-04-24T09:31:40;11.73;;;7.75;;
11837;SDS011;5978;51.020;6.764;2023-04-24T09:34:06;18.85;;;9.43;;
11837;SDS011;5978;51.020;6.764;2023-04-24T09:36:33;10.97;;;6.87;;
11837;SDS011;5978;51.020;6.764;2023-04-24T09:39:04;12.23;;;8.15;;
11837;SDS011;5978;51.020;6.764;2023-04-24T09:41:33;14.10;;;9.73;;
11837;SDS011;5978;51.020;6.764;2023-04-24T09:46:59;13.13;;;9.43;;
11837;SDS011;5978;51.020;6.764;2023-04-24T09:49:26;16.08;;;9.35;;
11837;SDS011;5978;51.020;6.764;2023-04-24T09:52:14;15.23;;;9.43;;
11837;SDS011;5978;51.020;6.764;2023-04-24T09:54:40;12.52;;;9.68;;
11837;SDS011;5978;51.020;6.764;2023-04-24T09:57:09;14.95;;;8.50;;
11837;SDS011;5978;51.020;6.764;2023-04-24T09:59:35;13.23;;;8.23;;
11837;SDS011;5978;51.020;6.764;2023-04-24T10:02:16;10.60;;;7.90;;
11837;SDS011;5978;51.020;6.764;2023-04-24T10:04:55;15.13;;;8.45;;
11837;SDS011;5978;51.020;6.764;2023-04-24T10:07:21;10.82;;;7.55;;
11837;SDS011;5978;51.020;6.764;2023-04-24T10:09:51;11.13;;;6.82;;
11837;SDS011;5978;51.020;6.764;2023-04-24T10:12:17;8.38;;;6.05;;
11837;SDS011;5978;51.020;6.764;2023-04-24T10:14:44;13.63;;;8.00;;
11837;SDS011;5978;51.020;6.764;2023-04-24T10:17:11;22.80;;;7.55;;
11837;SDS011;5978;51.020;6.764;2023-04-24T10:19:37;10.93;;;6.28;;
11837;SDS011;5978;51.020;6.764;2023-04-24T10:22:05;7.85;;;6.55;;
11837;SDS011;5978;51.020;6.764;2023-04-24T10:24:33;11.20;;;6.53;;
11837;SDS011;5978;51.020;6.764;2023-04-24T10:27:01;6.50;;;5.28;;
11837;SDS011;5978;51.020;6.764;2023-04-24T10:29:28;5.60;;;4.70;;
11837;SDS011;5978;51.020;6.764;2023-04-24T10:31:56;9.55;;;4.85;;
11837;SDS011;5978;51.020;6.764;2023-04-24T10:34:22;11.10;;;5.83;;
11837;SDS011;5978;51.020;6.764;2023-04-24T10:36:52;7.35;;;4.85;;
11837;SDS011;5978;51.020;6.764;2023-04-24T10:39:20;8.60;;;5.10;;
11837;SDS011;5978;51.020;6.764;2023-04-24T10:41:48;9.32;;;5.53;;
11837;SDS011;5978;51.020;6.764;2023-04-24T10:44:14;9.70;;;5.38;;
11837;SDS011;5978;51.020;6.764;2023-04-24T10:46:44;7.57;;;4.45;;
11837;SDS011;5978;51.020;6.764;2023-04-24T10:49:13;13.10;;;5.43;;
11837;SDS011;5978;51.020;6.764;2023-04-24T10:51:46;18.50;;;5.38;;
11837;SDS011;5978;51.020;6.764;2023-04-24T10:54:29;9.52;;;4.82;;
11837;SDS011;5978;51.020;6.764;2023-04-24T10:59:47;8.68;;;4.55;;
11837;SDS011;5978;51.020;6.764;2023-04-24T11:02:35;7.72;;;5.03;;
11837;SDS011;5978;51.020;6.764;2023-04-24T11:05:03;13.77;;;5.47;;
11837;SDS011;5978;51.020;6.764;2023-04-24T11:07:42;11.63;;;4.60;;
11837;SDS011;5978;51.020;6.764;2023-04-24T11:10:38;7.00;;;5.10;;
11837;SDS011;5978;51.020;6.764;2023-04-24T11:13:05;9.13;;;5.18;;
11837;SDS011;5978;51.020;6.764;2023-04-24T11:15:31;8.70;;;4.78;;
11837;SDS011;5978;51.020;6.764;2023-04-24T11:17:57;9.67;;;5.50;;
11837;SDS011;5978;51.020;6.764;2023-04-24T11:20:23;7.37;;;5.20;;
11837;SDS011;5978;51.020;6.764;2023-04-24T11:22:52;10.30;;;4.57;;
11837;SDS011;5978;51.020;6.764;2023-04-24T11:25:23;10.07;;;5.53;;
11837;SDS011;5978;51.020;6.764;2023-04-24T11:27:50;8.37;;;4.80;;
11837;SDS011;5978;51.020;6.764;2023-04-24T11:30:29;9.27;;;5.27;;
11837;SDS011;5978;51.020;6.764;2023-04-24T11:32:55;9.80;;;5.73;;
11837;SDS011;5978;51.020;6.764;2023-04-24T11:35:30;11.80;;;5.93;;
11837;SDS011;5978;51.020;6.764;2023-04-24T11:38:09;19.97;;;6.63;;
11837;SDS011;5978;51.020;6.764;2023-04-24T11:40:35;7.27;;;5.50;;
11837;SDS011;5978;51.020;6.764;2023-04-24T11:43:02;8.13;;;5.20;;
11837;SDS011;5978;51.020;6.764;2023-04-24T11:45:30;11.03;;;4.87;;
11837;SDS011;5978;51.020;6.764;2023-04-24T11:47:56;13.23;;;6.40;;
11837;SDS011;5978;51.020;6.764;2023-04-24T11:50:23;14.90;;;5.53;;
11837;SDS011;5978;51.020;6.764;2023-04-24T11:52:53;10.93;;;5.30;;
11837;SDS011;5978;51.020;6.764;2023-04-24T11:57:46;7.87;;;4.37;;
11837;SDS011;5978;51.020;6.764;2023-04-24T12:00:21;8.87;;;5.43;;
11837;SDS011;5978;51.020;6.764;2023-04-24T12:02:49;9.33;;;5.07;;
11837;SDS011;5978;51.020;6.764;2023-04-24T12:05:27;11.37;;;5.37;;
11837;SDS011;5978;51.020;6.764;2023-04-24T12:07:56;19.00;;;5.80;;
11837;SDS011;5978;51.020;6.764;2023-04-24T12:10:22;11.67;;;6.33;;
11837;SDS011;5978;51.020;6.764;2023-04-24T12:12:50;9.93;;;6.23;;
11837;SDS011;5978;51.020;6.764;2023-04-24T12:15:17;11.00;;;6.37;;
11837;SDS011;5978;51.020;6.764;2023-04-24T12:17:47;7.03;;;5.97;;
11837;SDS011;5978;51.020;6.764;2023-04-24T12:20:15;10.07;;;6.17;;
11837;SDS011;5978;51.020;6.764;2023-04-24T12:25:19;16.60;;;6.10;;
11837;SDS011;5978;51.020;6.764;2023-04-24T12:27:46;19.10;;;5.60;;
11837;SDS011;5978;51.020;6.764;2023-04-24T12:30:18;7.70;;;4.73;;
11837;SDS011;5978;51.020;6.764;2023-04-24T12:32:45;8.00;;;4.50;;
11837;SDS011;5978;51.020;6.764;2023-04-24T12:35:19;10.50;;;6.40;;
11837;SDS011;5978;51.020;6.764;2023-04-24T12:37:47;7.10;;;4.20;;
11837;SDS011;5978;51.020;6.764;2023-04-24T12:40:13;5.70;;;4.23;;
11837;SDS011;5978;51.020;6.764;2023-04-24T12:42:43;5.53;;;4.47;;
11837;SDS011;5978;51.020;6.764;2023-04-24T12:45:10;7.77;;;4.80;;
11837;SDS011;5978;51.020;6.764;2023-04-24T12:47:40;5.20;;;4.40;;
11837;SDS011;5978;51.020;6.764;2023-04-24T12:50:07;9.80;;;4.63;;
11837;SDS011;5978;51.020;6.764;2023-04-24T12:52:34;7.43;;;4.60;;
11837;SDS011;5978;51.020;6.764;2023-04-24T12:55:01;8.70;;;5.10;;
11837;SDS011;5978;51.020;6.764;2023-04-24T12:57:28;8.70;;;5.20;;
11837;SDS011;5978;51.020;6.764;2023-04-24T12:59:55;7.00;;;4.80;;
11837;SDS011;5978;51.020;6.764;2023-04-24T13:02:27;9.30;;;5.00;;
11837;SDS011;5978;51.020;6.764;2023-04-24T13:04:55;5.63;;;4.70;;
11837;SDS011;5978;51.020;6.764;2023-04-24T13:07:21;4.90;;;4.40;;
11837;SDS011;5978;51.020;6.764;2023-04-24T13:09:48;9.50;;;4.57;;
11837;SDS011;5978;51.020;6.764;2023-04-24T13:12:15;7.40;;;4.30;;
11837;SDS011;5978;51.020;6.764;2023-04-24T13:14:41;9.73;;;5.10;;
11837;SDS011;5978;51.020;6.764;2023-04-24T13:17:06;5.33;;;4.00;;
11837;SDS011;5978;51.020;6.764;2023-04-24T13:19:39;7.73;;;3.73;;
11837;SDS011;5978;51.020;6.764;2023-04-24T13:22:09;6.23;;;3.60;;
11837;SDS011;5978;51.020;6.764;2023-04-24T13:24:37;5.40;;;3.60;;
11837;SDS011;5978;51.020;6.764;2023-04-24T13:27:04;6.93;;;3.60;;
11837;SDS011;5978;51.020;6.764;2023-04-24T13:29:30;4.77;;;3.63;;
11837;SDS011;5978;51.020;6.764;2023-04-24T13:31:56;6.23;;;4.07;;
11837;SDS011;5978;51.020;6.764;2023-04-24T13:34:23;5.33;;;3.97;;
11837;SDS011;5978;51.020;6.764;2023-04-24T13:36:52;4.53;;;3.97;;
11837;SDS011;5978;51.020;6.764;2023-04-24T13:39:20;6.03;;;5.13;;
11837;SDS011;5978;51.020;6.764;2023-04-24T13:41:46;10.87;;;5.20;;
11837;SDS011;5978;51.020;6.764;2023-04-24T13:44:13;7.10;;;3.80;;
11837;SDS011;5978;51.020;6.764;2023-04-24T13:46:40;6.37;;;4.07;;
11837;SDS011;5978;51.020;6.764;2023-04-24T13:49:07;7.10;;;4.70;;
11837;SDS011;5978;51.020;6.764;2023-04-24T13:51:33;7.80;;;4.57;;
11837;SDS011;5978;51.020;6.764;2023-04-24T13:53:59;5.90;;;4.17;;
11837;SDS011;5978;51.020;6.764;2023-04-24T13:56:25;8.90;;;4.07;;
11837;SDS011;5978;51.020;6.764;2023-04-24T13:58:51;7.37;;;4.47;;
11837;SDS011;5978;51.020;6.764;2023-04-24T14:01:19;7.73;;;4.20;;
11837;SDS011;5978;51.020;6.764;2023-04-24T14:03:49;6.63;;;4.30;;
11837;SDS011;5978;51.020;6.764;2023-04-24T14:06:15;4.67;;;3.30;;
11837;SDS011;5978;51.020;6.764;2023-04-24T14:08:41;6.40;;;3.83;;
11837;SDS011;5978;51.020;6.764;2023-04-24T14:11:07;5.10;;;3.77;;
11837;SDS011;5978;51.020;6.764;2023-04-24T14:13:33;5.60;;;4.13;;
11837;SDS011;5978;51.020;6.764;2023-04-24T14:16:01;5.17;;;3.93;;
11837;SDS011;5978;51.020;6.764;2023-04-24T14:18:27;8.97;;;4.40;;
11837;SDS011;5978;51.020;6.764;2023-04-24T14:20:53;8.00;;;4.60;;
11837;SDS011;5978;51.020;6.764;2023-04-24T14:23:20;7.00;;;4.30;;
11837;SDS011;5978;51.020;6.764;2023-04-24T14:25:48;4.00;;;3.60;;
11837;SDS011;5978;51.020;6.764;2023-04-24T14:28:17;3.80;;;3.50;;
11837;SDS011;5978;51.020;6.764;2023-04-24T14:30:44;5.80;;;3.53;;
11837;SDS011;5978;51.020;6.764;2023-04-24T14:33:10;4.67;;;3.67;;
11837;SDS011;5978;51.020;6.764;2023-04-24T14:35:37;5.00;;;3.37;;
11837;SDS011;5978;51.020;6.764;2023-04-24T14:38:03;4.53;;;3.33;;
11837;SDS011;5978;51.020;6.764;2023-04-24T14:40:28;3.93;;;2.77;;
11837;SDS011;5978;51.020;6.764;2023-04-24T14:42:56;5.53;;;3.13;;
11837;SDS011;5978;51.020;6.764;2023-04-24T14:45:23;6.93;;;3.53;;
11837;SDS011;5978;51.020;6.764;2023-04-24T14:47:49;5.60;;;3.33;;
11837;SDS011;5978;51.020;6.764;2023-04-24T14:50:15;5.60;;;3.57;;
11837;SDS011;5978;51.020;6.764;2023-04-24T14:52:41;6.00;;;3.30;;
11837;SDS011;5978;51.020;6.764;2023-04-24T14:55:07;7.30;;;3.33;;
11837;SDS011;5978;51.020;6.764;2023-04-24T14:57:33;4.73;;;3.20;;
11837;SDS011;5978;51.020;6.764;2023-04-24T15:00:00;7.90;;;2.70;;
11837;SDS011;5978;51.020;6.764;2023-04-24T15:02:28;4.93;;;3.40;;
11837;SDS011;5978;51.020;6.764;2023-04-24T15:04:54;5.57;;;3.30;;